createdAt,value
2023-04-15T00:01:00.111Z,4.30
2023-04-15T00:03:30.477Z,3.90
2023-04-15T00:06:08.691Z,4.50
2023-04-15T00:08:41.785Z,4.50
2023-04-15T00:17:17.495Z,4.70
2023-04-15T00:19:48.327Z,5.20
2023-04-15T00:22:28.274Z,4.60
2023-04-15T00:24:58.561Z,4.80
2023-04-15T00:27:28.566Z,4.40
2023-04-15T00:30:00.934Z,5.10
2023-04-15T00:32:35.290Z,4.90
2023-04-15T00:35:04.821Z,4.60
2023-04-15T00:37:36.734Z,4.60
2023-04-15T00:40:09.493Z,4.50
2023-04-15T00:42:40.445Z,5.10
2023-04-15T00:45:10.734Z,4.60
2023-04-15T00:47:39.674Z,4.30
2023-04-15T00:50:09.637Z,4.70
2023-04-15T00:52:39.100Z,4.50
2023-04-15T00:55:09.056Z,5.10
2023-04-15T00:57:57.718Z,4.30
2023-04-15T01:00:26.913Z,4.70
2023-04-15T01:02:57.034Z,4.70
2023-04-15T01:05:25.785Z,4.70
2023-04-15T01:07:55.325Z,4.60
2023-04-15T01:10:24.118Z,4.60
2023-04-15T01:12:52.579Z,4.60
2023-04-15T01:15:21.548Z,4.80
2023-04-15T01:17:49.978Z,4.70
2023-04-15T01:20:18.461Z,5.00
2023-04-15T01:22:48.378Z,4.80
2023-04-15T01:25:20.417Z,5.60
2023-04-15T01:27:49.593Z,5.00
2023-04-15T01:30:17.830Z,5.50
2023-04-15T01:32:46.918Z,5.60
2023-04-15T01:35:15.282Z,5.80
2023-04-15T01:37:43.779Z,5.20
2023-04-15T01:40:12.254Z,4.90
2023-04-15T01:42:41.349Z,5.20
2023-04-15T01:45:11.369Z,4.90
2023-04-15T01:47:39.870Z,5.20
2023-04-15T01:50:08.669Z,5.40
2023-04-15T01:52:38.959Z,4.90
2023-04-15T01:55:08.734Z,5.40
2023-04-15T01:57:38.514Z,5.60
2023-04-15T02:00:11.672Z,5.20
2023-04-15T02:02:43.914Z,5.10
2023-04-15T02:05:12.348Z,5.00
2023-04-15T02:07:40.632Z,4.70
2023-04-15T02:10:10.541Z,5.90
2023-04-15T02:12:39.191Z,6.40
2023-04-15T02:15:09.101Z,6.10
2023-04-15T02:17:38.964Z,5.30
2023-04-15T02:20:10.713Z,5.50
2023-04-15T02:22:39.188Z,5.90
2023-04-15T02:25:09.396Z,6.20
2023-04-15T02:27:38.507Z,6.50
2023-04-15T02:30:07.524Z,5.60
2023-04-15T02:32:38.084Z,6.20
2023-04-15T02:35:09.140Z,5.60
2023-04-15T02:37:43.609Z,6.50
2023-04-15T02:40:12.519Z,6.30
2023-04-15T02:42:41.750Z,7.20
2023-04-15T02:45:13.219Z,6.80
2023-04-15T02:47:41.989Z,6.00
2023-04-15T02:50:13.031Z,6.20
2023-04-15T02:52:42.685Z,6.90
2023-04-15T02:55:11.262Z,6.90
2023-04-15T02:57:41.270Z,6.50
2023-04-15T03:00:12.132Z,5.90
2023-04-15T03:02:46.313Z,7.00
2023-04-15T03:05:16.474Z,6.90
2023-04-15T03:07:52.589Z,7.70
2023-04-15T03:10:21.616Z,7.30
2023-04-15T03:12:49.754Z,6.50
2023-04-15T03:15:27.341Z,6.40
2023-04-15T03:17:55.823Z,6.60
2023-04-15T03:20:24.315Z,7.00
2023-04-15T03:22:55.007Z,6.70
2023-04-15T03:25:23.558Z,5.70
2023-04-15T03:27:52.268Z,6.20
2023-04-15T03:30:33.227Z,7.10
2023-04-15T03:33:03.261Z,7.00
2023-04-15T03:35:31.777Z,7.10
2023-04-15T03:38:01.697Z,7.70
2023-04-15T03:40:30.539Z,5.80
2023-04-15T03:42:58.681Z,7.40
2023-04-15T03:45:26.709Z,7.20
2023-04-15T03:47:55.705Z,7.00
2023-04-15T03:50:29.145Z,6.50
2023-04-15T03:52:57.333Z,6.20
2023-04-15T03:55:25.717Z,6.20
2023-04-15T03:57:53.830Z,6.30
2023-04-15T04:00:22.305Z,6.10
2023-04-15T04:02:50.742Z,7.30
2023-04-15T04:05:19.364Z,6.90
2023-04-15T04:07:48.069Z,6.50
2023-04-15T04:10:16.348Z,6.40
2023-04-15T04:12:46.029Z,7.10
2023-04-15T04:15:14.986Z,7.30
2023-04-15T04:17:44.337Z,6.70
2023-04-15T04:20:12.798Z,6.20
2023-04-15T04:22:46.699Z,6.00
